Terminal Aerodrome Forecast
Issued by NWS

Current Version | Previous Version | Text Only | Print | Product List | Glossary On
Versions: 1 2 3 4 5 6 7 8 9 10 11 12
000
FTUS42 TJSJ 310500 RRA
TAFIST
TAF
TIST 310541Z 3106/0106 06005KT P6SM FEW025 SCT040
     FM311300 07012KT P6SM SCT025
     FM312300 06005KT P6SM FEW025=

USA.gov is the U.S. government's official web portal to all federal, state and local government web resources and services.